Time;durP1;ratioP1;P1;durP2;ratioP2;P2;SDS_P1;SDS_P2;PMS_P1;PMS_P2;Temp;Humidity;BMP_temperature;BMP_pressure;BME280_temperature;BME280_humidity;BME280_pressure;Samples;Min_cycle;Max_cycle;Signal;HPM_P1;HPM_P2
2021/04/09 00:00:29;;;;;;;3.67;1.38;;;-1.40;75.50;;;;;;5187753;28;20158;-67
2021/04/09 00:03:01;;;;;;;4.63;1.30;;;-1.40;76.00;;;;;;5186544;28;20126;-67
2021/04/09 00:05:33;;;;;;;3.78;1.15;;;-1.40;75.60;;;;;;5186972;28;20149;-69
2021/04/09 00:08:04;;;;;;;5.03;1.20;;;-1.50;75.00;;;;;;5188270;28;20045;-68
2021/04/09 00:10:36;;;;;;;2.58;1.00;;;-1.50;75.10;;;;;;5190209;28;20045;-65
2021/04/09 00:13:08;;;;;;;3.38;1.40;;;-1.50;75.30;;;;;;5190624;28;20096;-66
2021/04/09 00:15:40;;;;;;;4.03;1.10;;;-1.50;74.20;;;;;;5188682;28;20639;-65
2021/04/09 00:18:11;;;;;;;3.55;0.98;;;-1.50;74.70;;;;;;5192354;28;20037;-66
2021/04/09 00:20:42;;;;;;;5.05;1.42;;;-1.50;75.90;;;;;;5188603;28;20047;-65
2021/04/09 00:23:14;;;;;;;3.53;1.17;;;-1.60;74.90;;;;;;5190022;28;20053;-65
2021/04/09 00:25:45;;;;;;;4.90;1.67;;;-1.50;74.30;;;;;;5186447;28;20812;-65
2021/04/09 00:28:17;;;;;;;3.22;1.10;;;-1.50;75.10;;;;;;5188992;28;20515;-68
2021/04/09 00:30:48;;;;;;;6.03;1.00;;;-1.60;75.00;;;;;;5204153;28;20042;-68
2021/04/09 00:33:20;;;;;;;3.20;1.02;;;-1.60;74.40;;;;;;5190896;28;20053;-65
2021/04/09 00:35:51;;;;;;;4.32;1.05;;;-1.50;75.00;;;;;;5188953;28;20077;-65
2021/04/09 00:38:23;;;;;;;2.67;0.90;;;-1.50;74.60;;;;;;5189108;28;20617;-65
2021/04/09 00:40:55;;;;;;;4.10;1.20;;;-1.60;74.10;;;;;;5189745;28;20037;-65
2021/04/09 00:43:27;;;;;;;2.60;1.08;;;-1.70;75.00;;;;;;5189304;28;20049;-65
2021/04/09 00:45:59;;;;;;;4.22;1.30;;;-1.60;75.10;;;;;;5186694;28;20515;-65
2021/04/09 00:48:30;;;;;;;3.38;1.10;;;-1.70;76.50;;;;;;5191024;28;20120;-66
2021/04/09 00:51:04;;;;;;;3.38;1.13;;;-1.70;75.70;;;;;;5190864;28;20049;-67
2021/04/09 00:53:37;;;;;;;3.78;1.00;;;-1.70;75.20;;;;;;5192554;28;20049;-66
2021/04/09 00:56:10;;;;;;;2.92;1.13;;;-1.60;74.80;;;;;;5189669;28;20045;-67
2021/04/09 00:58:41;;;;;;;3.67;1.40;;;-1.60;74.40;;;;;;5189816;28;20069;-67
2021/04/09 01:01:13;;;;;;;2.05;0.90;;;-1.60;74.10;;;;;;5187436;28;20046;-66
2021/04/09 01:03:44;;;;;;;3.78;1.17;;;-1.60;74.90;;;;;;5189824;28;20045;-66
2021/04/09 01:06:16;;;;;;;2.67;1.10;;;-1.50;75.30;;;;;;5184845;28;20045;-65
2021/04/09 01:08:49;;;;;;;3.30;1.10;;;-1.60;75.80;;;;;;5190020;28;20640;-68
2021/04/09 01:11:20;;;;;;;5.07;1.60;;;-1.50;75.60;;;;;;5188982;28;20515;-65
2021/04/09 01:13:52;;;;;;;2.53;1.00;;;-1.60;75.50;;;;;;5190400;28;20033;-66
2021/04/09 01:16:54;;;;;;;2.15;0.93;;;-1.60;75.80;;;;;;5188842;28;20112;-65
2021/04/09 01:19:44;;;;;;;3.95;1.00;;;-1.60;75.20;;;;;;5189244;28;20720;-65
2021/04/09 01:22:16;;;;;;;2.35;0.85;;;-1.50;74.00;;;;;;5191060;28;20482;-65
2021/04/09 01:25:21;;;;;;;3.70;1.50;;;-1.40;73.80;;;;;;5190741;28;20524;-68
2021/04/09 01:28:13;;;;;;;3.35;1.10;;;-1.40;74.50;;;;;;5187717;28;20053;-65
2021/04/09 01:31:00;;;;;;;2.22;0.80;;;-1.40;74.20;;;;;;5191008;28;20045;-65
2021/04/09 01:33:43;;;;;;;2.38;0.95;;;-1.50;74.10;;;;;;5187340;28;20069;-68
2021/04/09 01:36:19;;;;;;;1.90;0.77;;;-1.50;73.00;;;;;;5186076;28;20049;-66
2021/04/09 01:39:23;;;;;;;2.65;1.00;;;-1.50;72.70;;;;;;5186738;28;20077;-65
2021/04/09 01:41:56;;;;;;;2.15;0.80;;;-1.50;73.40;;;;;;5189313;28;20042;-66
2021/04/09 01:44:30;;;;;;;1.85;0.80;;;-1.50;72.90;;;;;;5189446;28;20053;-65
2021/04/09 01:47:03;;;;;;;2.95;0.93;;;-1.40;74.10;;;;;;5186864;28;20042;-67
2021/04/09 01:49:37;;;;;;;3.25;0.90;;;-1.50;73.90;;;;;;5190355;28;20529;-68
2021/04/09 01:52:11;;;;;;;2.70;0.90;;;-1.50;72.90;;;;;;5189606;28;20111;-65
2021/04/09 01:54:45;;;;;;;3.58;1.13;;;-1.50;72.80;;;;;;5189054;28;20125;-65
2021/04/09 01:57:19;;;;;;;2.65;0.80;;;-1.50;72.40;;;;;;5184062;28;20038;-67
2021/04/09 01:59:52;;;;;;;3.47;0.70;;;-1.50;71.80;;;;;;5189495;28;20125;-65
2021/04/09 02:02:24;;;;;;;3.05;0.80;;;-1.50;71.10;;;;;;5186042;28;20091;-65
2021/04/09 02:04:57;;;;;;;4.93;1.45;;;-1.40;71.60;;;;;;5190843;28;20061;-66
2021/04/09 02:07:31;;;;;;;5.78;0.88;;;-1.30;71.00;;;;;;5185076;28;20042;-65
2021/04/09 02:10:05;;;;;;;1.92;0.82;;;-1.30;71.40;;;;;;5183607;28;20119;-67
2021/04/09 02:12:37;;;;;;;2.78;0.82;;;-1.20;70.10;;;;;;5184876;28;20529;-65
2021/04/09 02:15:10;;;;;;;4.00;1.33;;;-1.20;70.70;;;;;;5188796;28;20061;-65
2021/04/09 02:17:42;;;;;;;5.38;1.02;;;-1.20;71.40;;;;;;5186201;28;20045;-66
2021/04/09 02:20:17;;;;;;;2.10;0.70;;;-1.20;71.30;;;;;;5187332;28;20135;-65
2021/04/09 02:22:50;;;;;;;4.10;0.90;;;-1.30;72.10;;;;;;5184348;28;20415;-68
2021/04/09 02:25:23;;;;;;;4.78;0.60;;;-1.40;70.90;;;;;;5188991;28;20158;-65
2021/04/09 02:27:55;;;;;;;2.78;0.70;;;-1.40;70.10;;;;;;5186530;28;20109;-65
2021/04/09 02:30:27;;;;;;;5.18;1.10;;;-1.30;70.20;;;;;;5188388;28;20049;-65
2021/04/09 02:32:59;;;;;;;3.50;1.08;;;-1.30;69.30;;;;;;5186234;28;20132;-65
2021/04/09 02:35:30;;;;;;;4.95;1.25;;;-1.30;69.90;;;;;;5188677;28;20070;-65
2021/04/09 02:38:02;;;;;;;5.18;0.90;;;-1.40;71.30;;;;;;5189249;28;20458;-68
2021/04/09 02:40:35;;;;;;;3.90;0.80;;;-1.30;70.90;;;;;;5185724;28;20064;-68
2021/04/09 02:43:07;;;;;;;3.70;1.08;;;-1.30;70.80;;;;;;5187926;28;20511;-65
2021/04/09 02:45:39;;;;;;;2.63;0.90;;;-1.30;70.40;;;;;;5189208;28;20095;-68
2021/04/09 02:48:13;;;;;;;4.43;1.05;;;-1.30;70.50;;;;;;5188289;28;20565;-66
2021/04/09 02:50:46;;;;;;;2.08;0.75;;;-1.30;71.10;;;;;;5185176;28;20045;-65
2021/04/09 02:53:45;;;;;;;1.90;0.68;;;-1.30;70.20;;;;;;5184956;28;20556;-69
2021/04/09 02:56:17;;;;;;;2.00;0.63;;;-1.30;70.40;;;;;;5183749;28;20102;-66
2021/04/09 02:58:49;;;;;;;6.05;1.10;;;-1.30;69.40;;;;;;5185267;28;20040;-69
2021/04/09 03:01:23;;;;;;;2.47;0.88;;;-1.30;70.20;;;;;;5189493;28;20069;-65
2021/04/09 03:03:56;;;;;;;3.20;1.00;;;-1.30;70.80;;;;;;5188249;28;20483;-66
2021/04/09 03:06:28;;;;;;;1.98;0.82;;;-1.40;70.10;;;;;;5188716;28;20057;-65
2021/04/09 03:08:59;;;;;;;1.98;0.70;;;-1.30;70.90;;;;;;5190263;28;20053;-65
2021/04/09 03:11:31;;;;;;;1.70;0.60;;;-1.40;71.00;;;;;;5186581;28;20056;-65
2021/04/09 03:14:03;;;;;;;2.80;0.95;;;-1.30;69.90;;;;;;5187967;28;20112;-68
2021/04/09 03:16:58;;;;;;;2.92;0.88;;;-1.30;68.70;;;;;;5185305;28;20041;-67
2021/04/09 03:19:30;;;;;;;3.08;0.90;;;-1.30;68.60;;;;;;5188404;28;20045;-65
2021/04/09 03:22:09;;;;;;;2.08;0.80;;;-1.30;69.70;;;;;;5189961;28;20429;-67
2021/04/09 03:24:40;;;;;;;3.17;1.10;;;-1.40;69.80;;;;;;5192634;28;20056;-67
2021/04/09 03:27:14;;;;;;;3.55;0.90;;;-1.40;68.80;;;;;;5189096;28;20381;-65
2021/04/09 03:29:46;;;;;;;4.65;1.00;;;-1.40;69.10;;;;;;5188720;28;20049;-66
2021/04/09 03:32:18;;;;;;;2.30;0.80;;;-1.40;69.10;;;;;;5174353;28;20144;-68
2021/04/09 03:34:49;;;;;;;1.70;0.70;;;-1.50;69.10;;;;;;5181232;28;20049;-68
2021/04/09 03:37:20;;;;;;;2.72;0.90;;;-1.50;69.20;;;;;;5194287;28;20917;-68
2021/04/09 03:39:52;;;;;;;3.10;0.82;;;-1.70;69.20;;;;;;5189718;28;20037;-65
2021/04/09 03:42:23;;;;;;;2.17;0.80;;;-1.70;69.50;;;;;;5189478;28;20153;-65
2021/04/09 03:44:55;;;;;;;2.65;0.90;;;-1.80;70.20;;;;;;5189817;28;20045;-66
2021/04/09 03:47:26;;;;;;;3.80;0.90;;;-1.70;69.70;;;;;;5189347;28;20132;-66
2021/04/09 03:49:58;;;;;;;3.58;0.95;;;-1.80;70.00;;;;;;5191115;28;20079;-66
2021/04/09 03:52:30;;;;;;;3.17;1.13;;;-1.80;69.30;;;;;;5190590;28;20050;-66
2021/04/09 03:55:01;;;;;;;3.58;1.05;;;-1.80;69.30;;;;;;5197890;28;20044;-69
2021/04/09 03:57:32;;;;;;;4.43;1.10;;;-1.80;69.20;;;;;;5191026;28;20132;-69
2021/04/09 04:00:06;;;;;;;2.90;0.98;;;-1.70;70.20;;;;;;5191838;28;20724;-70
2021/04/09 04:02:37;;;;;;;2.58;0.88;;;-1.80;69.90;;;;;;5188706;28;20228;-66
2021/04/09 04:05:09;;;;;;;3.28;0.90;;;-1.70;68.90;;;;;;5189342;28;20038;-66
2021/04/09 04:07:41;;;;;;;2.78;0.90;;;-1.70;69.90;;;;;;5188916;28;20533;-66
2021/04/09 04:10:13;;;;;;;6.25;1.30;;;-1.70;70.40;;;;;;5186675;28;20100;-66
2021/04/09 04:12:44;;;;;;;2.90;0.93;;;-1.80;69.10;;;;;;5191371;28;20041;-66
2021/04/09 04:15:16;;;;;;;2.65;0.70;;;-1.80;69.50;;;;;;5191817;28;20092;-66
2021/04/09 04:17:48;;;;;;;2.50;1.00;;;-1.80;70.10;;;;;;5190951;28;20500;-69
2021/04/09 04:20:19;;;;;;;4.72;0.80;;;-1.80;68.90;;;;;;5188187;28;20130;-68
2021/04/09 04:22:51;;;;;;;11.93;4.20;;;-1.80;70.10;;;;;;5191819;28;20038;-66
2021/04/09 04:25:23;;;;;;;8.93;3.35;;;-1.90;70.50;;;;;;5187088;28;20053;-66
2021/04/09 04:27:55;;;;;;;26.90;14.75;;;-1.90;70.80;;;;;;5188215;28;20385;-65
2021/04/09 04:30:27;;;;;;;19.17;9.07;;;-2.00;70.60;;;;;;5187905;28;20046;-65
2021/04/09 04:32:59;;;;;;;5.85;1.85;;;-2.00;71.10;;;;;;5187788;28;20046;-65
2021/04/09 04:35:30;;;;;;;4.13;1.17;;;-2.00;71.40;;;;;;5185879;28;20093;-65
2021/04/09 04:38:04;;;;;;;4.10;1.00;;;-2.00;70.80;;;;;;5190094;28;20046;-68
2021/04/09 04:40:37;;;;;;;3.53;1.27;;;-2.00;69.90;;;;;;5191348;28;20037;-67
2021/04/09 04:43:09;;;;;;;15.88;6.32;;;-2.00;70.70;;;;;;5190176;28;20045;-66
2021/04/09 04:45:41;;;;;;;9.32;3.70;;;-2.00;72.70;;;;;;5186639;28;20050;-66
2021/04/09 04:48:12;;;;;;;6.13;2.17;;;-1.90;72.00;;;;;;5189767;28;20108;-66
2021/04/09 04:50:44;;;;;;;7.53;1.60;;;-1.80;71.90;;;;;;5188535;28;20092;-66
2021/04/09 04:53:15;;;;;;;4.78;1.42;;;-1.80;71.80;;;;;;5186787;28;20536;-66
2021/04/09 04:55:46;;;;;;;5.00;1.13;;;-1.70;72.00;;;;;;5192483;28;20073;-69
2021/04/09 04:58:18;;;;;;;3.28;0.70;;;-1.70;71.90;;;;;;5188181;28;20041;-70
2021/04/09 05:00:49;;;;;;;3.85;1.00;;;-1.60;71.10;;;;;;5189559;28;20522;-68
2021/04/09 05:03:21;;;;;;;4.13;1.45;;;-1.60;70.20;;;;;;5188642;28;20111;-67
2021/04/09 05:05:52;;;;;;;3.55;1.02;;;-1.60;69.10;;;;;;5189823;28;20491;-66
2021/04/09 05:08:24;;;;;;;3.17;0.80;;;-1.60;70.00;;;;;;5189321;28;20061;-69
2021/04/09 05:10:56;;;;;;;5.20;0.90;;;-1.70;70.60;;;;;;5188568;28;20542;-64
2021/04/09 05:13:27;;;;;;;2.92;0.70;;;-1.60;70.00;;;;;;5192528;28;20040;-64
2021/04/09 05:15:59;;;;;;;2.72;0.98;;;-1.70;71.40;;;;;;5191413;28;20152;-65
2021/04/09 05:18:30;;;;;;;3.88;0.82;;;-1.60;71.80;;;;;;5188847;28;20037;-65
2021/04/09 05:21:02;;;;;;;3.10;0.75;;;-1.50;71.50;;;;;;5192628;28;20148;-68
2021/04/09 05:23:33;;;;;;;2.67;0.80;;;-1.30;71.40;;;;;;5189838;28;20070;-66
2021/04/09 05:26:05;;;;;;;2.08;0.70;;;-1.30;71.10;;;;;;5188280;28;20045;-66
2021/04/09 05:28:36;;;;;;;9.38;2.75;;;-1.10;70.50;;;;;;5195143;28;20045;-64
2021/04/09 05:31:07;;;;;;;8.55;3.30;;;-0.90;69.50;;;;;;5187585;28;20172;-65
2021/04/09 05:33:39;;;;;;;7.47;1.77;;;-0.90;69.10;;;;;;5187310;28;20460;-64
2021/04/09 05:36:10;;;;;;;6.18;2.58;;;-0.90;68.70;;;;;;5187927;28;20494;-65
2021/04/09 05:38:42;;;;;;;9.80;3.70;;;-0.70;69.10;;;;;;5192796;28;20171;-66
2021/04/09 05:41:13;;;;;;;6.88;2.20;;;-0.60;67.60;;;;;;5187914;28;20103;-64
2021/04/09 05:43:44;;;;;;;6.28;1.30;;;-0.50;66.90;;;;;;5189991;28;20038;-63
2021/04/09 05:46:16;;;;;;;5.07;1.20;;;-0.60;68.80;;;;;;5188053;28;20551;-64
2021/04/09 05:48:48;;;;;;;3.03;1.00;;;-0.40;69.10;;;;;;5187404;28;20081;-65
2021/04/09 05:51:19;;;;;;;5.45;1.40;;;-0.30;68.80;;;;;;5187268;28;20131;-65
2021/04/09 05:53:51;;;;;;;7.70;3.05;;;-0.10;68.20;;;;;;5185970;28;20455;-63
2021/04/09 05:56:22;;;;;;;10.55;4.68;;;0.00;66.30;;;;;;5187243;28;20450;-63
2021/04/09 05:58:54;;;;;;;6.53;2.33;;;0.20;66.40;;;;;;5187054;28;20081;-63
2021/04/09 06:01:25;;;;;;;7.07;2.00;;;0.30;67.50;;;;;;5186747;28;20049;-63
2021/04/09 06:04:00;;;;;;;13.32;4.82;;;0.40;67.20;;;;;;5185394;28;20052;-63
2021/04/09 06:06:31;;;;;;;21.90;11.02;;;0.60;65.90;;;;;;5186548;28;20103;-65
2021/04/09 06:09:03;;;;;;;13.07;5.72;;;0.80;64.50;;;;;;5186010;28;20046;-66
2021/04/09 06:11:35;;;;;;;8.77;3.45;;;0.90;64.50;;;;;;5185236;28;20056;-65
2021/04/09 06:14:07;;;;;;;14.63;3.80;;;1.10;65.00;;;;;;5186422;28;20038;-63
2021/04/09 06:16:38;;;;;;;10.68;1.90;;;1.30;64.60;;;;;;5185019;28;20089;-63
2021/04/09 06:19:10;;;;;;;6.75;2.45;;;1.40;64.80;;;;;;5189658;28;20056;-64
2021/04/09 06:21:41;;;;;;;9.02;3.10;;;1.60;62.00;;;;;;5189415;28;20148;-64
2021/04/09 06:24:13;;;;;;;9.48;3.17;;;1.80;62.50;;;;;;5188978;28;20822;-63
2021/04/09 06:26:44;;;;;;;12.05;5.18;;;2.00;61.10;;;;;;5184312;28;20609;-63
2021/04/09 06:29:16;;;;;;;6.75;2.70;;;2.10;61.80;;;;;;5178853;28;20135;-64
2021/04/09 06:31:47;;;;;;;7.18;2.60;;;2.10;61.10;;;;;;5186744;28;20096;-65
2021/04/09 06:34:19;;;;;;;8.65;1.95;;;1.90;61.80;;;;;;5188251;28;20042;-66
2021/04/09 06:36:51;;;;;;;6.20;1.83;;;2.00;61.60;;;;;;5179589;28;20067;-63
2021/04/09 06:39:23;;;;;;;9.98;1.60;;;2.10;61.80;;;;;;5186212;28;20447;-63
2021/04/09 06:41:54;;;;;;;5.75;1.65;;;2.30;60.20;;;;;;5187733;28;20038;-63
2021/04/09 06:44:27;;;;;;;7.72;1.98;;;2.30;61.70;;;;;;5187874;28;20950;-63
2021/04/09 06:47:01;;;;;;;3.55;1.45;;;2.60;62.10;;;;;;5186036;28;20063;-66
2021/04/09 06:49:33;;;;;;;4.82;1.92;;;3.00;62.30;;;;;;5185605;28;20049;-67
2021/04/09 06:52:05;;;;;;;5.85;1.85;;;3.40;61.10;;;;;;5184170;28;20085;-68
2021/04/09 06:54:36;;;;;;;5.22;1.40;;;3.50;57.30;;;;;;5180602;28;20409;-64
2021/04/09 06:57:11;;;;;;;2.13;0.90;;;3.70;57.80;;;;;;5187998;28;20499;-63
2021/04/09 06:59:44;;;;;;;2.60;0.93;;;3.90;53.10;;;;;;5193354;28;20103;-63
2021/04/09 07:02:17;;;;;;;6.43;2.70;;;4.10;49.80;;;;;;5190597;28;20118;-66
2021/04/09 07:04:49;;;;;;;4.72;1.50;;;4.20;54.40;;;;;;5191172;28;20053;-67
2021/04/09 07:07:21;;;;;;;3.22;1.10;;;4.30;56.30;;;;;;5191250;28;20042;-65
2021/04/09 07:09:52;;;;;;;4.38;1.20;;;4.50;56.90;;;;;;5188948;28;20076;-63
2021/04/09 07:12:26;;;;;;;4.60;1.17;;;4.70;53.30;;;;;;5188651;28;20045;-64
2021/04/09 07:15:08;;;;;;;2.25;0.82;;;4.80;50.50;;;;;;5192713;28;20100;-63
2021/04/09 07:17:46;;;;;;;4.13;1.15;;;4.90;50.90;;;;;;5191702;28;20046;-63
2021/04/09 07:20:25;;;;;;;3.28;1.05;;;5.20;52.60;;;;;;5190113;28;21050;-67
2021/04/09 07:22:58;;;;;;;5.78;1.33;;;5.50;52.30;;;;;;5189106;28;20393;-64
2021/04/09 07:25:32;;;;;;;4.72;1.60;;;5.70;54.60;;;;;;5191282;28;20507;-64
2021/04/09 07:28:22;;;;;;;5.65;1.90;;;5.80;53.80;;;;;;5188491;28;20045;-65
2021/04/09 07:30:56;;;;;;;6.55;2.42;;;6.00;52.20;;;;;;5185546;28;20842;-64
2021/04/09 07:33:29;;;;;;;6.00;2.47;;;6.00;53.90;;;;;;5190324;28;20077;-63
2021/04/09 07:36:09;;;;;;;6.53;1.85;;;5.90;54.30;;;;;;5188695;28;20108;-65
2021/04/09 07:38:51;;;;;;;7.87;2.63;;;6.00;53.50;;;;;;5190073;28;20046;-65
2021/04/09 07:41:23;;;;;;;6.43;2.10;;;6.20;53.60;;;;;;5188575;28;20681;-64
2021/04/09 07:43:55;;;;;;;6.18;2.30;;;6.30;54.20;;;;;;5190398;28;20048;-64
2021/04/09 07:46:27;;;;;;;4.75;1.65;;;6.50;52.50;;;;;;5189898;28;20499;-63
2021/04/09 07:49:04;;;;;;;4.45;1.27;;;6.60;48.00;;;;;;5191990;28;20723;-64
2021/04/09 07:51:36;;;;;;;6.07;1.38;;;6.70;44.80;;;;;;5188411;28;20528;-63
2021/04/09 07:54:09;;;;;;;5.82;2.03;;;6.90;48.20;;;;;;5191114;28;20052;-63
2021/04/09 07:56:45;;;;;;;4.60;1.80;;;7.10;48.60;;;;;;5188574;28;20034;-65
2021/04/09 07:59:45;;;;;;;4.07;1.63;;;7.30;47.20;;;;;;5187847;28;20066;-65
2021/04/09 08:02:18;;;;;;;5.80;1.95;;;7.50;50.30;;;;;;5188690;28;20380;-64
2021/04/09 08:04:58;;;;;;;3.75;1.60;;;7.70;47.30;;;;;;5188517;28;20507;-66
2021/04/09 08:07:34;;;;;;;6.60;1.55;;;7.80;46.80;;;;;;5191402;28;20099;-64
2021/04/09 08:10:16;;;;;;;5.18;1.67;;;7.90;45.80;;;;;;5192037;28;20286;-64
2021/04/09 08:12:53;;;;;;;7.20;2.03;;;8.10;44.30;;;;;;5190294;28;20045;-66
2021/04/09 08:15:26;;;;;;;5.35;1.88;;;8.30;46.50;;;;;;5190125;28;20495;-64
2021/04/09 08:17:59;;;;;;;5.32;1.98;;;8.40;44.60;;;;;;5188463;28;20046;-65
2021/04/09 08:20:33;;;;;;;7.55;2.33;;;8.50;47.00;;;;;;5187246;28;20045;-65
2021/04/09 08:23:11;;;;;;;5.93;1.95;;;8.50;47.30;;;;;;5188589;28;20057;-66
2021/04/09 08:25:43;;;;;;;6.95;2.28;;;8.70;47.10;;;;;;5188106;28;20052;-65
2021/04/09 08:28:15;;;;;;;5.25;2.30;;;8.90;45.60;;;;;;5187236;28;20511;-64
2021/04/09 08:30:46;;;;;;;6.95;2.20;;;8.90;46.60;;;;;;5185976;28;20455;-67
2021/04/09 08:33:18;;;;;;;4.60;2.28;;;9.10;45.90;;;;;;5193017;28;20053;-68
2021/04/09 08:35:50;;;;;;;4.50;2.08;;;9.30;45.00;;;;;;5187698;28;20115;-64
2021/04/09 08:38:21;;;;;;;4.43;1.73;;;9.40;44.20;;;;;;5187248;28;20049;-64
2021/04/09 08:40:55;;;;;;;4.72;1.88;;;9.40;43.90;;;;;;5189562;28;20041;-64
2021/04/09 08:43:27;;;;;;;5.65;2.15;;;9.60;44.90;;;;;;5191432;28;20140;-64
2021/04/09 08:45:59;;;;;;;6.82;2.33;;;9.80;46.00;;;;;;5188032;28;20069;-64
2021/04/09 08:48:33;;;;;;;4.80;1.80;;;10.00;44.80;;;;;;5193190;28;20041;-67
2021/04/09 08:51:08;;;;;;;4.80;1.95;;;10.20;44.30;;;;;;5184833;28;20194;-64
2021/04/09 08:53:39;;;;;;;5.45;2.17;;;10.20;44.70;;;;;;5190298;28;20048;-65
2021/04/09 08:56:11;;;;;;;4.40;1.73;;;10.50;45.10;;;;;;5188582;28;20065;-64
2021/04/09 08:58:45;;;;;;;7.85;2.15;;;10.60;41.20;;;;;;5185359;28;20057;-64
2021/04/09 09:01:16;;;;;;;4.10;1.73;;;10.70;41.00;;;;;;5186371;28;20127;-65
2021/04/09 09:03:48;;;;;;;5.75;1.95;;;10.90;43.20;;;;;;5206233;28;20054;-66
2021/04/09 09:06:42;;;;;;;4.78;1.75;;;11.10;40.90;;;;;;5187680;28;20057;-66
2021/04/09 09:09:37;;;;;;;6.07;2.47;;;11.20;43.40;;;;;;5189715;28;20426;-63
2021/04/09 09:12:14;;;;;;;5.20;1.85;;;11.40;42.30;;;;;;5186549;28;20054;-65
2021/04/09 09:14:46;;;;;;;5.28;1.80;;;11.50;40.90;;;;;;5188508;28;20096;-64
2021/04/09 09:17:20;;;;;;;5.70;2.70;;;11.70;39.90;;;;;;5184585;28;20061;-67
2021/04/09 09:20:27;;;;;;;4.85;2.10;;;11.80;39.90;;;;;;5193624;28;20041;-64
2021/04/09 09:22:58;;;;;;;5.05;2.05;;;12.10;40.00;;;;;;5155962;28;20054;-64
2021/04/09 09:25:35;;;;;;;8.60;2.85;;;12.20;38.80;;;;;;5183902;28;20164;-64
2021/04/09 09:28:09;;;;;;;4.75;2.22;;;12.40;37.70;;;;;;5190461;28;20056;-64
2021/04/09 09:30:42;;;;;;;7.18;2.40;;;12.50;38.30;;;;;;5188036;28;20038;-64
2021/04/09 09:33:22;;;;;;;5.47;2.35;;;12.50;37.10;;;;;;5186042;28;20038;-64
2021/04/09 09:36:01;;;;;;;5.63;2.38;;;12.20;37.70;;;;;;5189064;28;20561;-63
2021/04/09 09:38:49;;;;;;;5.15;2.03;;;12.10;36.30;;;;;;5186549;28;20046;-66
2021/04/09 09:41:47;;;;;;;6.50;2.10;;;12.10;38.00;;;;;;5187017;28;20073;-64
2021/04/09 09:44:33;;;;;;;5.47;1.80;;;12.30;38.00;;;;;;5186702;28;20089;-66
2021/04/09 09:47:07;;;;;;;7.45;2.30;;;12.30;36.40;;;;;;5188346;28;20053;-66
2021/04/09 09:49:39;;;;;;;5.75;2.20;;;12.50;36.50;;;;;;5168476;28;20072;-63
2021/04/09 09:52:24;;;;;;;6.95;2.47;;;12.20;40.30;;;;;;5180106;28;20670;-63
2021/04/09 09:55:23;;;;;;;8.65;3.03;;;12.40;38.80;;;;;;5191061;28;20042;-64
2021/04/09 09:58:12;;;;;;;5.97;2.58;;;12.60;35.50;;;;;;5191292;28;20401;-64
2021/04/09 10:00:50;;;;;;;5.40;2.55;;;12.30;37.10;;;;;;5187769;28;20125;-63
2021/04/09 10:03:29;;;;;;;7.40;2.50;;;12.40;39.00;;;;;;5188638;28;20042;-63
2021/04/09 10:06:04;;;;;;;5.30;2.00;;;12.60;37.10;;;;;;5181568;28;20048;-63
2021/04/09 10:08:50;;;;;;;7.70;2.60;;;12.40;37.50;;;;;;5188340;28;20511;-66
2021/04/09 10:11:23;;;;;;;5.70;2.30;;;12.60;37.00;;;;;;5186060;28;20814;-63
2021/04/09 10:13:56;;;;;;;8.27;2.50;;;12.60;38.10;;;;;;5188199;28;20048;-63
2021/04/09 10:16:28;;;;;;;5.63;2.28;;;12.60;35.90;;;;;;5190470;28;20052;-62
2021/04/09 10:19:07;;;;;;;7.68;2.53;;;12.50;36.40;;;;;;5191273;28;20204;-63
2021/04/09 10:21:41;;;;;;;5.78;2.00;;;12.60;36.20;;;;;;5184827;28;20060;-65
2021/04/09 10:24:37;;;;;;;6.93;2.15;;;12.50;36.80;;;;;;5189772;28;20045;-63
2021/04/09 10:27:10;;;;;;;6.72;2.70;;;12.90;36.80;;;;;;5188040;28;20033;-63
2021/04/09 10:29:41;;;;;;;7.68;2.33;;;13.20;35.50;;;;;;5188504;28;20392;-63
2021/04/09 10:32:16;;;;;;;7.40;2.60;;;13.00;35.60;;;;;;5189103;28;20049;-63
2021/04/09 10:34:48;;;;;;;6.05;2.47;;;12.70;37.10;;;;;;5191252;28;20046;-65
2021/04/09 10:37:26;;;;;;;7.38;2.35;;;12.50;37.70;;;;;;5187282;28;20046;-63
2021/04/09 10:39:57;;;;;;;6.63;2.80;;;12.60;37.90;;;;;;5188659;28;20434;-63
2021/04/09 10:42:29;;;;;;;7.10;2.20;;;12.90;41.80;;;;;;5187238;28;20050;-63
2021/04/09 10:45:15;;;;;;;6.38;2.45;;;12.60;42.50;;;;;;5188728;28;20069;-63
2021/04/09 10:47:46;;;;;;;5.10;2.55;;;12.40;39.90;;;;;;5186200;28;20050;-65
2021/04/09 10:50:18;;;;;;;6.10;3.05;;;12.60;38.70;;;;;;5190370;28;20148;-66
2021/04/09 10:52:50;;;;;;;6.47;2.65;;;12.80;37.50;;;;;;5189981;28;20704;-66
2021/04/09 10:55:30;;;;;;;5.57;2.30;;;13.00;37.60;;;;;;5188772;28;20041;-63
2021/04/09 10:58:02;;;;;;;6.97;2.45;;;12.80;39.30;;;;;;5190738;28;20050;-66
2021/04/09 11:00:33;;;;;;;5.63;2.50;;;12.60;40.80;;;;;;5184704;28;20041;-65
2021/04/09 11:03:07;;;;;;;5.45;2.38;;;12.50;42.70;;;;;;5188753;28;20071;-64
2021/04/09 11:05:39;;;;;;;4.90;2.40;;;12.70;41.60;;;;;;5189643;28;20096;-63
2021/04/09 11:08:11;;;;;;;5.30;2.05;;;12.80;42.00;;;;;;5187851;28;20049;-66
2021/04/09 11:10:43;;;;;;;4.55;2.10;;;13.00;41.30;;;;;;5189466;28;20153;-63
2021/04/09 11:13:37;;;;;;;4.35;2.05;;;12.70;39.30;;;;;;5187499;28;20044;-66
2021/04/09 11:16:14;;;;;;;6.10;2.50;;;12.70;41.00;;;;;;5189949;28;20042;-62
2021/04/09 11:18:49;;;;;;;5.45;2.20;;;12.70;42.00;;;;;;5185911;28;21142;-64
2021/04/09 11:21:42;;;;;;;6.15;2.10;;;12.20;42.50;;;;;;5184806;28;20057;-63
2021/04/09 11:24:19;;;;;;;4.47;2.10;;;12.20;48.80;;;;;;5182057;28;20462;-63
2021/04/09 11:26:53;;;;;;;6.10;2.38;;;12.30;45.10;;;;;;5186875;28;20056;-64
2021/04/09 11:29:28;;;;;;;6.75;2.38;;;12.40;40.50;;;;;;5187903;28;20080;-63
2021/04/09 11:32:14;;;;;;;5.20;2.33;;;12.10;41.10;;;;;;5186381;28;20096;-63
2021/04/09 11:34:51;;;;;;;6.85;2.30;;;12.40;40.50;;;;;;5190093;28;20045;-66
2021/04/09 11:37:24;;;;;;;8.07;2.28;;;12.40;41.20;;;;;;5191051;28;20076;-64
2021/04/09 11:39:58;;;;;;;5.32;2.10;;;12.70;42.40;;;;;;5184783;28;20046;-63
2021/04/09 11:42:35;;;;;;;5.13;2.53;;;12.70;39.30;;;;;;5192464;28;20046;-63
2021/04/09 11:45:12;;;;;;;6.68;2.90;;;12.80;39.80;;;;;;5180222;28;20053;-64
2021/04/09 11:47:44;;;;;;;5.93;2.60;;;13.10;37.50;;;;;;5189272;28;20041;-63
2021/04/09 11:50:25;;;;;;;4.40;2.30;;;13.50;40.80;;;;;;5188630;28;20489;-63
2021/04/09 11:53:05;;;;;;;5.93;3.10;;;13.60;40.10;;;;;;5189925;28;20072;-62
2021/04/09 11:55:38;;;;;;;6.15;2.88;;;13.80;35.70;;;;;;5188518;28;20111;-64
2021/04/09 11:58:25;;;;;;;7.65;3.03;;;14.10;36.60;;;;;;5190313;28;20502;-63
2021/04/09 12:00:59;;;;;;;6.22;2.88;;;14.00;36.10;;;;;;5188481;28;20119;-66
2021/04/09 12:03:43;;;;;;;6.13;2.53;;;14.00;36.40;;;;;;5192016;28;20227;-64
2021/04/09 12:06:16;;;;;;;7.40;3.00;;;13.80;35.50;;;;;;5193238;28;20534;-63
2021/04/09 12:08:49;;;;;;;4.40;2.58;;;13.70;36.90;;;;;;5191499;28;20050;-66
2021/04/09 12:11:22;;;;;;;7.07;2.60;;;13.60;38.40;;;;;;5206939;28;20048;-65
2021/04/09 12:13:54;;;;;;;5.15;2.22;;;13.40;37.80;;;;;;5196005;28;20046;-65
2021/04/09 12:16:25;;;;;;;5.07;2.20;;;13.20;37.80;;;;;;5189169;28;20034;-63
2021/04/09 12:18:57;;;;;;;5.10;2.08;;;13.10;35.70;;;;;;5189531;28;20067;-63
2021/04/09 12:21:29;;;;;;;4.22;1.88;;;12.90;39.60;;;;;;5186630;28;20042;-66
2021/04/09 12:24:01;;;;;;;5.20;2.22;;;12.70;41.00;;;;;;5195239;28;20124;-65
2021/04/09 12:26:32;;;;;;;3.78;2.35;;;12.60;41.70;;;;;;5188661;28;20446;-66
2021/04/09 12:29:04;;;;;;;4.78;2.08;;;12.50;41.80;;;;;;5187080;28;20534;-66
2021/04/09 12:31:35;;;;;;;4.82;2.17;;;12.40;41.90;;;;;;5188839;28;20113;-66
2021/04/09 12:34:07;;;;;;;4.53;1.80;;;12.30;43.10;;;;;;5189471;28;20047;-64
2021/04/09 12:36:38;;;;;;;5.47;2.10;;;12.30;41.90;;;;;;5189615;28;20061;-64
2021/04/09 12:39:10;;;;;;;4.43;2.10;;;12.30;41.00;;;;;;5186278;28;20104;-63
2021/04/09 12:41:42;;;;;;;6.40;1.92;;;12.20;39.20;;;;;;5187226;28;20051;-63
2021/04/09 12:44:15;;;;;;;4.03;1.70;;;12.20;40.30;;;;;;5188679;28;20049;-63
2021/04/09 12:46:48;;;;;;;3.15;1.58;;;12.10;42.70;;;;;;5183707;28;20495;-66
2021/04/09 12:49:21;;;;;;;4.05;1.40;;;12.10;41.30;;;;;;5196435;28;20099;-65
2021/04/09 12:51:52;;;;;;;4.15;1.70;;;12.20;38.00;;;;;;5187098;28;20045;-64
2021/04/09 12:54:24;;;;;;;6.30;1.70;;;12.40;39.10;;;;;;5187058;28;20500;-63
2021/04/09 12:56:56;;;;;;;4.40;1.80;;;12.50;38.30;;;;;;5191936;28;20041;-63
2021/04/09 12:59:29;;;;;;;4.13;2.03;;;12.60;37.20;;;;;;5188994;28;20515;-63
2021/04/09 13:02:01;;;;;;;5.80;2.03;;;12.50;36.90;;;;;;5190350;28;20104;-63
2021/04/09 13:04:33;;;;;;;5.15;1.60;;;12.10;37.50;;;;;;5189904;28;20045;-65
2021/04/09 13:07:04;;;;;;;4.93;1.60;;;11.90;36.10;;;;;;5188802;28;20067;-65
2021/04/09 13:09:36;;;;;;;4.25;1.77;;;11.70;40.70;;;;;;5188249;28;20129;-63
2021/04/09 13:12:08;;;;;;;5.53;1.70;;;11.40;38.70;;;;;;5187530;28;20073;-63
2021/04/09 13:14:40;;;;;;;5.22;1.92;;;11.40;39.00;;;;;;5188939;28;20045;-63
2021/04/09 13:17:14;;;;;;;4.63;2.17;;;11.60;37.20;;;;;;5186561;28;20418;-64
2021/04/09 13:19:45;;;;;;;4.38;2.00;;;11.90;35.20;;;;;;5188752;28;20088;-63
2021/04/09 13:22:17;;;;;;;5.72;2.22;;;12.20;35.70;;;;;;5186889;28;20457;-66
2021/04/09 13:24:48;;;;;;;4.43;2.10;;;12.40;38.00;;;;;;5188894;28;20091;-67